createdAt,value
2019-05-18T00:02:08.678Z,100218.42
2019-05-18T00:04:39.057Z,100217.12
2019-05-18T00:07:09.755Z,100224.09
2019-05-18T00:09:40.519Z,100219.33
2019-05-18T00:12:11.511Z,100217.61
2019-05-18T00:14:41.930Z,100217.14
2019-05-18T00:17:24.570Z,100221.95
2019-05-18T00:19:45.862Z,100219.80
2019-05-18T00:22:17.201Z,100217.20
2019-05-18T00:24:47.561Z,100214.60
2019-05-18T00:27:21.211Z,100214.59
2019-05-18T00:29:51.552Z,100211.10
2019-05-18T00:32:25.245Z,100208.51
2019-05-18T00:34:55.567Z,100205.91
2019-05-18T00:37:26.949Z,100206.79
2019-05-18T00:39:57.304Z,100207.22
2019-05-18T00:42:28.848Z,100203.31
2019-05-18T00:44:59.213Z,100202.02
2019-05-18T00:47:40.861Z,100198.52
2019-05-18T00:50:01.677Z,100197.22
2019-05-18T00:52:34.892Z,100195.47
2019-05-18T00:55:08.109Z,100198.55
2019-05-18T00:57:38.719Z,100195.49
2019-05-18T01:00:10.467Z,100192.44
2019-05-18T01:02:43.731Z,100190.27
2019-05-18T01:05:14.721Z,100193.73
2019-05-18T01:07:46.056Z,100194.19
2019-05-18T01:10:16.798Z,100189.84
2019-05-18T01:12:48.433Z,100184.57
2019-05-18T01:15:19.772Z,100181.50
2019-05-18T01:17:57.473Z,100184.13
2019-05-18T01:20:24.742Z,100177.59
2019-05-18T01:22:55.366Z,100181.92
2019-05-18T01:25:25.732Z,100175.38
2019-05-18T01:27:57.665Z,100172.32
2019-05-18T01:30:28.316Z,100172.31
2019-05-18T01:33:01.160Z,100172.75
2019-05-18T01:35:31.497Z,100175.33
2019-05-18T01:38:04.061Z,100173.16
2019-05-18T01:40:34.547Z,100172.72
2019-05-18T01:43:05.438Z,100173.58
2019-05-18T01:45:36.068Z,100174.44
2019-05-18T01:48:13.969Z,100175.34
2019-05-18T01:50:38.624Z,100172.71
2019-05-18T01:53:09.697Z,100171.00
2019-05-18T01:55:40.178Z,100171.86
2019-05-18T01:58:12.056Z,100174.08
2019-05-18T02:00:42.314Z,100173.66
2019-05-18T02:03:14.263Z,100177.13
2019-05-18T02:05:44.770Z,100172.34
2019-05-18T02:08:15.609Z,100167.11
2019-05-18T02:10:46.131Z,100161.02
2019-05-18T02:13:18.495Z,100157.97
2019-05-18T02:15:48.926Z,100157.11
2019-05-18T02:18:28.781Z,100156.64
2019-05-18T02:20:51.634Z,100152.27
2019-05-18T02:23:24.914Z,100153.59
2019-05-18T02:25:55.284Z,100151.38
2019-05-18T02:28:27.256Z,100153.98
2019-05-18T02:30:57.504Z,100149.63
2019-05-18T02:33:29.276Z,100149.65
2019-05-18T02:35:59.606Z,100149.24
2019-05-18T02:38:30.019Z,100148.82
2019-05-18T02:41:00.278Z,100153.16
2019-05-18T02:43:31.897Z,100151.88
2019-05-18T02:46:02.560Z,100152.75
2019-05-18T02:48:48.871Z,100149.25
2019-05-18T02:51:06.192Z,100148.41
2019-05-18T02:53:36.793Z,100151.86
2019-05-18T02:56:07.497Z,100150.13
2019-05-18T02:58:38.133Z,100139.17
2019-05-18T03:01:08.481Z,100137.50
2019-05-18T03:03:39.126Z,100140.55
2019-05-18T03:06:09.864Z,100133.55
2019-05-18T03:08:40.555Z,100136.66
2019-05-18T03:11:10.888Z,100134.46
2019-05-18T03:13:43.853Z,100126.63
2019-05-18T03:16:14.247Z,100129.70
2019-05-18T03:18:45.512Z,100131.89
2019-05-18T03:21:16.266Z,100124.51
2019-05-18T03:23:47.728Z,100123.64
2019-05-18T03:26:18.079Z,100119.72
2019-05-18T03:28:49.700Z,100120.62
2019-05-18T03:31:19.991Z,100119.28
2019-05-18T03:33:51.675Z,100120.17
2019-05-18T03:36:22.018Z,100122.80
2019-05-18T03:38:52.386Z,100120.20
2019-05-18T03:41:23.142Z,100121.96
2019-05-18T03:43:54.808Z,100112.38
2019-05-18T03:46:25.134Z,100119.36
2019-05-18T03:48:55.503Z,100108.05
2019-05-18T03:51:25.862Z,100114.55
2019-05-18T03:53:57.119Z,100108.91
2019-05-18T03:56:27.440Z,100111.94
2019-05-18T03:58:57.735Z,100115.45
2019-05-18T04:01:28.665Z,100115.03
2019-05-18T04:04:00.746Z,100112.44
2019-05-18T04:06:32.111Z,100111.10
2019-05-18T04:09:02.440Z,100115.45
2019-05-18T04:11:32.959Z,100116.34
2019-05-18T04:14:07.874Z,100121.13
2019-05-18T04:16:35.760Z,100118.95
2019-05-18T04:19:06.085Z,100121.14
2019-05-18T04:21:36.911Z,100118.09
2019-05-18T04:24:07.429Z,100121.58
2019-05-18T04:26:38.465Z,100126.30
2019-05-18T04:29:10.328Z,100131.55
2019-05-18T04:31:43.893Z,100128.52
2019-05-18T04:34:14.344Z,100130.27
2019-05-18T04:36:44.673Z,100130.27
2019-05-18T04:39:15.198Z,100135.03
2019-05-18T04:41:45.696Z,100138.05
2019-05-18T04:44:16.598Z,100135.03
2019-05-18T04:46:46.885Z,100132.39
2019-05-18T04:49:18.565Z,100134.19
2019-05-18T04:51:49.130Z,100137.67
2019-05-18T04:54:19.767Z,100138.09
2019-05-18T04:56:50.019Z,100138.08
2019-05-18T04:59:20.462Z,100136.77
2019-05-18T05:01:52.689Z,100142.02
2019-05-18T05:04:24.166Z,100140.68
2019-05-18T05:06:54.495Z,100140.67
2019-05-18T05:09:26.503Z,100144.11
2019-05-18T05:11:56.970Z,100149.77
2019-05-18T05:14:28.835Z,100146.22
2019-05-18T05:16:59.152Z,100147.09
2019-05-18T05:19:29.888Z,100151.38
2019-05-18T05:22:00.596Z,100144.81
2019-05-18T05:24:31.490Z,100156.07
2019-05-18T05:27:02.460Z,100150.30
2019-05-18T05:29:32.817Z,100149.78
2019-05-18T05:32:04.468Z,100148.38
2019-05-18T05:34:36.086Z,100150.89
2019-05-18T05:37:06.448Z,100153.47
2019-05-18T05:39:37.975Z,100152.63
2019-05-18T05:42:08.301Z,100154.28
2019-05-18T05:44:39.804Z,100151.11
2019-05-18T05:47:10.161Z,100148.95
2019-05-18T05:49:40.825Z,100149.77
2019-05-18T05:52:11.563Z,100153.63
2019-05-18T05:54:43.857Z,100152.27
2019-05-18T05:57:15.383Z,100156.95
2019-05-18T05:59:45.802Z,100158.09
2019-05-18T06:02:16.140Z,100156.25
2019-05-18T06:04:47.396Z,100156.14
2019-05-18T06:07:17.762Z,100158.31
2019-05-18T06:09:48.941Z,100167.45
2019-05-18T06:12:20.668Z,100162.08
2019-05-18T06:14:51.657Z,100163.20
2019-05-18T06:17:22.062Z,100169.64
2019-05-18T06:19:53.608Z,100160.36
2019-05-18T06:22:24.338Z,100164.06
2019-05-18T06:24:57.124Z,100164.06
2019-05-18T06:27:27.544Z,100164.48
2019-05-18T06:29:59.330Z,100165.66
2019-05-18T06:32:29.755Z,100163.83
2019-05-18T06:35:00.151Z,100168.92
2019-05-18T06:37:30.411Z,100168.81
2019-05-18T06:40:00.792Z,100171.56
2019-05-18T06:42:31.557Z,100166.85
2019-05-18T06:45:01.846Z,100169.95
2019-05-18T06:47:32.705Z,100170.94
2019-05-18T06:50:03.708Z,100169.29
2019-05-18T06:52:35.023Z,100166.65
2019-05-18T06:55:06.410Z,100163.41
2019-05-18T06:57:38.483Z,100169.25
2019-05-18T07:00:14.343Z,100168.29
2019-05-18T07:02:45.741Z,100172.55
2019-05-18T07:05:16.717Z,100177.98
2019-05-18T07:07:48.171Z,100174.77
2019-05-18T07:10:18.538Z,100180.56
2019-05-18T07:12:48.830Z,100181.56
2019-05-18T07:15:21.193Z,100179.67
2019-05-18T07:17:58.024Z,100189.78
2019-05-18T07:20:28.471Z,100179.34
2019-05-18T07:22:58.807Z,100177.55
2019-05-18T07:25:29.764Z,100185.72
2019-05-18T07:28:01.739Z,100187.85
2019-05-18T07:30:32.585Z,100184.39
2019-05-18T07:33:02.953Z,100190.31
2019-05-18T07:35:33.595Z,100195.37
2019-05-18T07:38:03.923Z,100192.22
2019-05-18T07:40:34.670Z,100197.54
2019-05-18T07:43:04.999Z,100196.53
2019-05-18T07:45:35.306Z,100195.22
2019-05-18T07:48:06.234Z,100199.91
2019-05-18T07:50:37.079Z,100198.16
2019-05-18T07:53:09.092Z,100196.56
2019-05-18T07:55:39.668Z,100197.25
2019-05-18T07:58:11.715Z,100196.77
2019-05-18T08:00:42.981Z,100196.50
2019-05-18T08:03:13.303Z,100190.18
2019-05-18T08:05:43.814Z,100187.14
2019-05-18T08:08:14.365Z,100180.98
2019-05-18T08:10:45.017Z,100186.48
2019-05-18T08:13:15.511Z,100186.89
2019-05-18T08:15:46.953Z,100180.69
2019-05-18T08:18:18.408Z,100186.00
2019-05-18T08:20:48.783Z,100186.11
2019-05-18T08:23:19.365Z,100186.48
2019-05-18T08:25:49.734Z,100182.31
2019-05-18T08:28:22.448Z,100187.44
2019-05-18T08:30:55.634Z,100182.43
2019-05-18T08:33:26.029Z,100183.62
2019-05-18T08:35:57.542Z,100173.17
2019-05-18T08:38:28.034Z,100182.44
2019-05-18T08:40:59.906Z,100180.58
2019-05-18T08:43:30.456Z,100180.69
2019-05-18T08:46:00.866Z,100178.26
2019-05-18T08:48:31.621Z,100177.34
2019-05-18T08:51:02.943Z,100179.22
2019-05-18T08:53:33.831Z,100176.78
2019-05-18T08:56:04.185Z,100181.52
2019-05-18T08:58:35.244Z,100174.88
2019-05-18T09:01:05.841Z,100174.41
2019-05-18T09:03:36.246Z,100178.19
2019-05-18T09:06:06.518Z,100179.13
2019-05-18T09:08:37.042Z,100183.24
2019-05-18T09:11:08.195Z,100176.89
2019-05-18T09:13:38.591Z,100170.74
2019-05-18T09:16:09.103Z,100173.48
2019-05-18T09:18:39.686Z,100171.14
2019-05-18T09:21:11.139Z,100168.39
2019-05-18T09:23:42.006Z,100170.22
2019-05-18T09:26:12.254Z,100172.30
2019-05-18T09:28:45.772Z,100166.08
2019-05-18T09:31:17.663Z,100164.48
2019-05-18T09:33:48.464Z,100169.27
2019-05-18T09:36:19.485Z,100175.67
2019-05-18T09:38:49.767Z,100173.16
2019-05-18T09:41:20.392Z,100178.97
2019-05-18T09:43:51.475Z,100172.77
2019-05-18T09:46:21.968Z,100168.88
2019-05-18T09:48:52.990Z,100166.68
2019-05-18T09:51:24.116Z,100166.66
2019-05-18T09:53:55.438Z,100161.41
2019-05-18T09:56:25.764Z,100176.30
2019-05-18T09:58:56.144Z,100173.67
2019-05-18T10:01:27.369Z,100171.34
2019-05-18T10:03:57.697Z,100174.13
2019-05-18T10:06:31.539Z,100171.77
2019-05-18T10:09:04.947Z,100181.38
2019-05-18T10:11:38.526Z,100177.94
2019-05-18T10:14:10.108Z,100185.91
2019-05-18T10:16:40.533Z,100186.25
2019-05-18T10:19:11.101Z,100179.40
2019-05-18T10:21:41.592Z,100182.95
2019-05-18T10:24:12.104Z,100179.70
2019-05-18T10:26:42.439Z,100178.69
2019-05-18T10:29:12.828Z,100179.11
2019-05-18T10:31:43.412Z,100174.05
2019-05-18T10:34:14.829Z,100178.09
2019-05-18T10:36:46.311Z,100175.63
2019-05-18T10:39:17.240Z,100172.63
2019-05-18T10:41:47.704Z,100177.59
2019-05-18T10:44:19.303Z,100169.07
2019-05-18T10:46:49.593Z,100166.41
2019-05-18T10:49:20.359Z,100169.23
2019-05-18T10:51:51.602Z,100165.83
2019-05-18T10:54:23.123Z,100167.67
2019-05-18T10:56:53.789Z,100163.98
2019-05-18T10:59:24.121Z,100162.80
2019-05-18T11:01:55.079Z,100164.38
2019-05-18T11:04:29.094Z,100160.00
2019-05-18T11:07:01.523Z,100157.36
2019-05-18T11:09:31.787Z,100161.41
2019-05-18T11:12:04.755Z,100164.86
2019-05-18T11:14:36.160Z,100160.36
2019-05-18T11:17:07.998Z,100160.53
2019-05-18T11:19:38.358Z,100161.88
2019-05-18T11:22:08.666Z,100164.67
2019-05-18T11:24:40.032Z,100165.48
2019-05-18T11:27:11.645Z,100168.28
2019-05-18T11:29:41.974Z,100166.37
2019-05-18T11:32:13.614Z,100165.59
2019-05-18T11:34:44.383Z,100171.16
2019-05-18T11:37:15.537Z,100165.80
2019-05-18T11:39:45.858Z,100166.23
2019-05-18T11:42:17.016Z,100169.37
2019-05-18T11:44:48.616Z,100169.19
2019-05-18T11:47:19.126Z,100162.37
2019-05-18T11:49:49.745Z,100164.33
2019-05-18T11:52:21.990Z,100162.06
2019-05-18T11:54:53.209Z,100162.37
2019-05-18T11:57:23.796Z,100154.20
2019-05-18T11:59:54.586Z,100154.06
2019-05-18T12:02:25.010Z,100154.28
2019-05-18T12:04:55.636Z,100158.77
2019-05-18T12:07:28.243Z,100157.00
2019-05-18T12:09:58.646Z,100162.05
2019-05-18T12:12:29.688Z,100160.42
2019-05-18T12:15:00.005Z,100161.14
2019-05-18T12:17:30.941Z,100164.37
2019-05-18T12:20:01.251Z,100167.97
2019-05-18T12:22:32.399Z,100168.09
2019-05-18T12:25:04.168Z,100172.13
2019-05-18T12:27:34.952Z,100168.38
2019-05-18T12:30:10.334Z,100169.83
2019-05-18T12:32:42.537Z,100169.47
2019-05-18T12:35:13.775Z,100181.24
2019-05-18T12:37:45.096Z,100177.15
2019-05-18T12:40:18.622Z,100170.62
2019-05-18T12:42:50.552Z,100172.00
2019-05-18T12:45:22.358Z,100176.92
2019-05-18T12:47:53.045Z,100170.05
2019-05-18T12:50:24.823Z,100173.42
2019-05-18T12:52:55.338Z,100170.97
2019-05-18T12:55:26.133Z,100176.62
2019-05-18T12:57:56.998Z,100172.70
2019-05-18T13:00:27.705Z,100171.98
2019-05-18T13:02:58.440Z,100170.59
2019-05-18T13:05:30.390Z,100175.83
2019-05-18T13:08:04.014Z,100174.27
2019-05-18T13:10:35.322Z,100176.30
2019-05-18T13:13:06.097Z,100179.98
2019-05-18T13:15:37.232Z,100176.64
2019-05-18T13:18:07.671Z,100175.22
2019-05-18T13:20:37.994Z,100174.16
2019-05-18T13:23:08.720Z,100177.44
2019-05-18T13:25:38.959Z,100182.53
2019-05-18T13:28:09.278Z,100178.16
2019-05-18T13:30:39.696Z,100176.88
2019-05-18T13:33:10.550Z,100177.22
2019-05-18T13:35:45.260Z,100178.05
2019-05-18T13:38:14.505Z,100176.25
2019-05-18T13:40:44.836Z,100182.76
2019-05-18T13:43:15.807Z,100180.98
2019-05-18T13:45:46.307Z,100175.87
2019-05-18T13:48:17.055Z,100171.58
2019-05-18T13:50:47.388Z,100181.05
2019-05-18T13:53:18.179Z,100178.38
2019-05-18T13:55:50.173Z,100168.61
2019-05-18T13:58:20.537Z,100170.53
2019-05-18T14:00:53.915Z,100169.31
2019-05-18T14:03:24.206Z,100173.41
2019-05-18T14:05:54.811Z,100172.69
2019-05-18T14:08:26.512Z,100175.71
2019-05-18T14:10:56.928Z,100177.61
2019-05-18T14:13:27.222Z,100175.98
2019-05-18T14:15:57.506Z,100182.05
2019-05-18T14:18:27.813Z,100185.64
2019-05-18T14:20:58.101Z,100188.48
2019-05-18T14:23:29.035Z,100197.09
2019-05-18T14:25:59.847Z,100198.30
2019-05-18T14:28:31.311Z,100192.02
2019-05-18T14:31:02.274Z,100195.66
2019-05-18T14:33:34.658Z,100190.27
2019-05-18T14:36:05.686Z,100192.41
2019-05-18T14:38:36.047Z,100195.33
2019-05-18T14:41:06.442Z,100195.25
2019-05-18T14:43:40.365Z,100191.85
2019-05-18T14:46:10.585Z,100191.22
2019-05-18T14:48:40.860Z,100192.19
2019-05-18T14:51:11.641Z,100193.98
2019-05-18T14:53:42.033Z,100190.39
2019-05-18T14:56:12.670Z,100191.66
2019-05-18T14:58:43.403Z,100194.57
2019-05-18T15:01:15.277Z,100202.60
2019-05-18T15:03:45.719Z,100203.39
2019-05-18T15:06:16.010Z,100197.56
2019-05-18T15:08:48.177Z,100205.28
2019-05-18T15:11:18.489Z,100198.98
2019-05-18T15:13:49.480Z,100203.44
2019-05-18T15:16:20.253Z,100206.58
2019-05-18T15:18:51.532Z,100213.38
2019-05-18T15:21:21.763Z,100207.50
2019-05-18T15:23:52.477Z,100210.61
2019-05-18T15:26:23.973Z,100202.69
2019-05-18T15:28:54.460Z,100205.60
2019-05-18T15:31:24.940Z,100203.81
2019-05-18T15:33:56.419Z,100201.66
2019-05-18T15:36:26.735Z,100205.39
2019-05-18T15:38:57.831Z,100215.03
2019-05-18T15:41:28.140Z,100218.39
2019-05-18T15:43:59.423Z,100215.57
2019-05-18T15:46:29.762Z,100218.91
2019-05-18T15:49:00.813Z,100215.03
2019-05-18T15:51:31.340Z,100217.68
2019-05-18T15:54:02.481Z,100222.41
2019-05-18T15:56:32.803Z,100222.53
2019-05-18T15:59:03.240Z,100226.34
2019-05-18T16:01:33.559Z,100223.30
2019-05-18T16:04:06.558Z,100223.55
2019-05-18T16:06:36.626Z,100220.73
2019-05-18T16:09:08.210Z,100219.19
2019-05-18T16:11:39.170Z,100215.33
2019-05-18T16:14:11.757Z,100220.11
2019-05-18T16:16:42.151Z,100219.36
2019-05-18T16:19:13.017Z,100220.06
2019-05-18T16:21:43.336Z,100229.30
2019-05-18T16:24:14.080Z,100226.25
2019-05-18T16:26:44.469Z,100229.06
2019-05-18T16:29:14.810Z,100225.48
2019-05-18T16:31:45.223Z,100231.48
2019-05-18T16:34:17.739Z,100233.77
2019-05-18T16:36:48.273Z,100238.00
2019-05-18T16:39:20.287Z,100238.41
2019-05-18T16:41:50.535Z,100240.02
2019-05-18T16:44:21.437Z,100235.78
2019-05-18T16:46:52.368Z,100239.19
2019-05-18T16:49:23.448Z,100239.70
2019-05-18T16:51:53.783Z,100237.83
2019-05-18T16:54:24.517Z,100241.17
2019-05-18T16:56:54.861Z,100245.83
2019-05-18T16:59:25.440Z,100242.27
2019-05-18T17:01:55.841Z,100238.30
2019-05-18T17:04:27.211Z,100239.63
2019-05-18T17:06:57.770Z,100245.03
2019-05-18T17:09:28.603Z,100247.90
2019-05-18T17:11:58.951Z,100245.61
2019-05-18T17:14:31.063Z,100245.53
2019-05-18T17:17:01.379Z,100254.06
2019-05-18T17:19:31.762Z,100249.55
2019-05-18T17:22:02.119Z,100245.58
2019-05-18T17:24:33.525Z,100241.10
2019-05-18T17:27:03.919Z,100249.44
2019-05-18T17:29:34.306Z,100251.89
2019-05-18T17:32:04.993Z,100256.77
2019-05-18T17:34:36.811Z,100260.94
2019-05-18T17:37:07.231Z,100253.69
2019-05-18T17:39:41.251Z,100263.26
2019-05-18T17:42:12.622Z,100258.19
2019-05-18T17:44:46.072Z,100270.34
2019-05-18T17:47:16.903Z,100278.81
2019-05-18T17:49:48.585Z,100277.58
2019-05-18T17:52:19.258Z,100276.22
2019-05-18T17:54:50.760Z,100280.34
2019-05-18T17:57:21.681Z,100289.45
2019-05-18T17:59:54.674Z,100295.93
2019-05-18T18:02:24.996Z,100297.13
2019-05-18T18:04:56.240Z,100292.59
2019-05-18T18:07:26.572Z,100291.80
2019-05-18T18:09:58.634Z,100299.49
2019-05-18T18:12:28.969Z,100293.36
2019-05-18T18:14:59.344Z,100294.92
2019-05-18T18:17:30.023Z,100304.95
2019-05-18T18:20:00.428Z,100313.73
2019-05-18T18:22:30.843Z,100316.91
2019-05-18T18:25:03.025Z,100306.47
2019-05-18T18:27:33.853Z,100316.97
2019-05-18T18:30:06.936Z,100332.33
2019-05-18T18:32:38.078Z,100323.26
2019-05-18T18:35:13.169Z,100329.63
2019-05-18T18:37:43.499Z,100335.15
2019-05-18T18:40:14.501Z,100335.50
2019-05-18T18:42:46.126Z,100337.58
2019-05-18T18:45:19.252Z,100337.91
2019-05-18T18:47:49.600Z,100344.69
2019-05-18T18:50:25.253Z,100342.31
2019-05-18T18:52:55.683Z,100354.39
2019-05-18T18:55:26.250Z,100345.16
2019-05-18T18:57:56.563Z,100348.35
2019-05-18T19:00:27.443Z,100347.58
2019-05-18T19:02:57.788Z,100354.12
2019-05-18T19:05:28.742Z,100350.84
2019-05-18T19:07:59.495Z,100353.38
2019-05-18T19:10:31.577Z,100361.34
2019-05-18T19:13:01.908Z,100361.78
2019-05-18T19:15:33.855Z,100359.81
2019-05-18T19:18:04.570Z,100361.80
2019-05-18T19:20:35.606Z,100364.15
2019-05-18T19:23:06.175Z,100365.41
2019-05-18T19:25:39.016Z,100371.37
2019-05-18T19:28:09.279Z,100373.89
2019-05-18T19:30:39.676Z,100377.41
2019-05-18T19:33:10.347Z,100379.71
2019-05-18T19:35:43.018Z,100378.77
2019-05-18T19:38:13.440Z,100371.56
2019-05-18T19:40:44.372Z,100382.14
2019-05-18T19:43:15.976Z,100381.46
2019-05-18T19:45:46.981Z,100380.85
2019-05-18T19:48:17.764Z,100392.90
2019-05-18T19:50:48.107Z,100393.70
2019-05-18T19:53:18.887Z,100396.42
2019-05-18T19:55:49.659Z,100391.70
2019-05-18T19:58:20.247Z,100400.31
2019-05-18T20:00:50.568Z,100406.11
2019-05-18T20:03:21.252Z,100403.10
2019-05-18T20:05:51.556Z,100408.27
2019-05-18T20:08:21.858Z,100404.06
2019-05-18T20:10:52.531Z,100413.78
2019-05-18T20:13:23.109Z,100414.95
2019-05-18T20:15:53.969Z,100421.28
2019-05-18T20:18:24.305Z,100422.95
2019-05-18T20:20:54.929Z,100422.27
2019-05-18T20:23:26.397Z,100434.98
2019-05-18T20:25:56.796Z,100431.55
2019-05-18T20:28:28.663Z,100432.88
2019-05-18T20:30:58.950Z,100430.70
2019-05-18T20:33:30.082Z,100430.77
2019-05-18T20:36:01.192Z,100426.61
2019-05-18T20:38:31.584Z,100438.55
2019-05-18T20:41:02.321Z,100433.77
2019-05-18T20:43:32.865Z,100438.29
2019-05-18T20:46:03.212Z,100445.33
2019-05-18T20:48:33.498Z,100443.52
2019-05-18T20:51:04.831Z,100440.93
2019-05-18T20:53:35.261Z,100441.91
2019-05-18T20:56:06.053Z,100440.69
2019-05-18T20:58:39.967Z,100448.55
2019-05-18T21:01:08.818Z,100447.94
2019-05-18T21:03:39.729Z,100446.24
2019-05-18T21:06:10.105Z,100446.80
2019-05-18T21:08:40.417Z,100443.24
2019-05-18T21:11:12.036Z,100451.94
2019-05-18T21:13:42.457Z,100451.39
2019-05-18T21:16:15.147Z,100448.66
2019-05-18T21:18:45.864Z,100448.73
2019-05-18T21:21:16.282Z,100450.19
2019-05-18T21:23:46.776Z,100450.27
2019-05-18T21:26:17.295Z,100456.45
2019-05-18T21:28:56.445Z,100460.98
2019-05-18T21:31:20.790Z,100463.59
2019-05-18T21:33:51.183Z,100467.17
2019-05-18T21:36:21.814Z,100461.91
2019-05-18T21:38:52.078Z,100464.14
2019-05-18T21:41:22.970Z,100462.29
2019-05-18T21:43:53.985Z,100455.54
2019-05-18T21:46:24.452Z,100457.80
2019-05-18T21:48:55.311Z,100459.73
2019-05-18T21:51:25.683Z,100460.67
2019-05-18T21:53:56.714Z,100463.23
2019-05-18T21:56:27.933Z,100458.05
2019-05-18T21:59:10.590Z,100459.92
2019-05-18T22:01:30.777Z,100463.09
2019-05-18T22:04:01.980Z,100465.66
2019-05-18T22:06:32.446Z,100468.22
2019-05-18T22:09:04.400Z,100467.86
2019-05-18T22:11:35.962Z,100469.64
2019-05-18T22:14:07.195Z,100466.60
2019-05-18T22:16:39.478Z,100475.37
2019-05-18T22:19:09.887Z,100471.00
2019-05-18T22:21:41.157Z,100470.92
2019-05-18T22:24:13.158Z,100475.38
2019-05-18T22:26:44.965Z,100477.55
2019-05-18T22:29:15.374Z,100476.25
2019-05-18T22:31:45.681Z,100481.05
2019-05-18T22:34:16.453Z,100479.26
2019-05-18T22:36:47.693Z,100480.22
2019-05-18T22:39:18.214Z,100480.70
2019-05-18T22:41:49.444Z,100482.94
2019-05-18T22:44:20.278Z,100482.46
2019-05-18T22:46:52.556Z,100489.92
2019-05-18T22:49:22.934Z,100482.47
2019-05-18T22:51:53.718Z,100483.78
2019-05-18T22:54:24.463Z,100488.19
2019-05-18T22:56:55.587Z,100483.81
2019-05-18T22:59:26.736Z,100488.62
2019-05-18T23:01:57.153Z,100485.58
2019-05-18T23:04:27.906Z,100487.32
2019-05-18T23:07:00.127Z,100486.45
2019-05-18T23:09:31.813Z,100487.33
2019-05-18T23:12:02.963Z,100485.16
2019-05-18T23:14:33.369Z,100486.89
2019-05-18T23:17:04.725Z,100491.69
2019-05-18T23:19:35.136Z,100484.72
2019-05-18T23:22:05.469Z,100484.67
2019-05-18T23:24:35.901Z,100488.60
2019-05-18T23:27:06.518Z,100489.92
2019-05-18T23:29:36.891Z,100490.79
2019-05-18T23:32:07.245Z,100489.92
2019-05-18T23:34:37.923Z,100483.39
2019-05-18T23:37:10.169Z,100487.74
2019-05-18T23:39:44.379Z,100482.06
2019-05-18T23:42:16.248Z,100480.32
2019-05-18T23:44:46.591Z,100479.89
2019-05-18T23:47:17.850Z,100485.55
2019-05-18T23:49:48.631Z,100482.47
2019-05-18T23:52:19.884Z,100484.66
2019-05-18T23:54:50.213Z,100486.39
2019-05-18T23:57:20.955Z,100482.04
2019-05-18T23:59:53.013Z,100488.13
